Time;durP1;ratioP1;P1;durP2;ratioP2;P2;SDS_P1;SDS_P2;PMS_P1;PMS_P2;Temp;Humidity;BMP_temperature;BMP_pressure;BME280_temperature;BME280_humidity;BME280_pressure;Samples;Min_cycle;Max_cycle;Signal;HPM_P1;HPM_P2
2023/08/07 00:00:30;;;;;;;1.73;1.63;;;15.10;99.90;15.20;99291.00;;;;4987914;27;116974;-64
2023/08/07 00:02:55;;;;;;;4.97;1.50;;;15.10;99.90;15.10;99283.00;;;;4987923;27;87955;-65
2023/08/07 00:05:21;;;;;;;3.95;1.52;;;15.10;99.90;15.20;99288.00;;;;4985792;27;109707;-65
2023/08/07 00:07:47;;;;;;;2.15;1.60;;;15.10;99.90;15.10;99289.00;;;;4982918;27;108695;-65
2023/08/07 00:10:14;;;;;;;1.45;1.27;;;15.10;99.90;15.10;99283.00;;;;4985028;27;117567;-64
2023/08/07 00:12:39;;;;;;;1.10;1.02;;;15.10;99.90;15.10;99277.00;;;;4989028;27;88016;-64
2023/08/07 00:15:06;;;;;;;1.08;0.68;;;15.10;99.90;15.20;99281.00;;;;4985866;27;101343;-64
2023/08/07 00:17:31;;;;;;;1.45;1.10;;;15.10;99.90;15.10;99282.00;;;;4985298;27;87831;-63
2023/08/07 00:19:57;;;;;;;1.42;1.33;;;15.10;99.90;15.10;99284.00;;;;4985558;27;117782;-63
2023/08/07 00:22:23;;;;;;;3.00;1.33;;;15.10;99.90;15.10;99284.00;;;;4980863;27;117867;-64
2023/08/07 00:24:49;;;;;;;1.20;1.08;;;15.10;99.90;15.10;99289.00;;;;4985116;27;87054;-63
2023/08/07 00:27:14;;;;;;;1.58;1.48;;;15.10;99.90;15.10;99285.00;;;;4983114;27;108742;-64
2023/08/07 00:29:40;;;;;;;0.82;0.70;;;15.00;99.90;15.10;99292.00;;;;4983969;27;118555;-65
2023/08/07 00:32:06;;;;;;;1.35;1.13;;;15.00;99.90;15.10;99283.00;;;;4983258;27;88890;-62
2023/08/07 00:34:32;;;;;;;1.48;1.13;;;15.00;99.90;15.00;99285.00;;;;4984136;27;88132;-65
2023/08/07 00:36:58;;;;;;;1.73;1.40;;;15.00;99.90;15.00;99284.00;;;;4987034;27;107561;-65
2023/08/07 00:39:24;;;;;;;2.38;1.23;;;15.00;99.90;15.00;99289.00;;;;4984889;27;88001;-63
2023/08/07 00:41:50;;;;;;;1.15;1.00;;;14.90;99.90;15.00;99284.00;;;;4987315;27;88131;-64
2023/08/07 00:44:16;;;;;;;1.05;0.85;;;14.90;99.90;15.00;99289.00;;;;4986728;27;110031;-64
2023/08/07 00:46:43;;;;;;;0.60;0.55;;;14.90;99.90;14.90;99293.00;;;;4992594;27;89275;-64
2023/08/07 00:49:11;;;;;;;0.50;0.50;;;14.90;99.90;14.90;99295.00;;;;4985947;27;117272;-65
2023/08/07 00:51:38;;;;;;;0.52;0.40;;;14.90;99.90;14.90;99305.00;;;;4988098;27;87931;-65
2023/08/07 00:54:05;;;;;;;0.90;0.57;;;14.80;99.90;14.90;99297.00;;;;4989978;27;88023;-64
2023/08/07 00:56:34;;;;;;;0.37;0.37;;;14.80;99.90;14.90;99300.00;;;;4983784;27;88843;-66
2023/08/07 00:59:00;;;;;;;0.73;0.63;;;14.80;99.90;14.90;99296.00;;;;4985761;27;116784;-66
2023/08/07 01:01:27;;;;;;;2.25;1.10;;;14.80;99.90;14.90;99289.00;;;;4986564;27;87940;-65
2023/08/07 01:03:53;;;;;;;0.60;0.60;;;14.80;99.90;14.90;99300.00;;;;4987104;27;87861;-66
2023/08/07 01:06:18;;;;;;;3.67;1.00;;;14.80;99.90;14.90;99292.00;;;;4987046;27;102559;-66
2023/08/07 01:08:45;;;;;;;0.85;0.68;;;14.90;99.90;14.90;99287.00;;;;4992188;27;87993;-66
2023/08/07 01:11:39;;;;;;;0.70;0.60;;;14.80;99.90;14.90;99294.00;;;;4993514;27;88609;-65
2023/08/07 01:14:27;;;;;;;1.17;1.08;;;14.80;99.90;14.90;99296.00;;;;4989465;27;87226;-66
2023/08/07 01:17:03;;;;;;;0.55;0.50;;;14.80;99.90;14.80;99293.00;;;;4989005;27;98962;-65
2023/08/07 01:19:29;;;;;;;0.82;0.70;;;14.80;99.90;14.80;99290.00;;;;4986073;27;89415;-64
2023/08/07 01:22:16;;;;;;;1.15;0.77;;;14.80;99.90;14.80;99297.00;;;;4988921;27;116147;-65
2023/08/07 01:24:46;;;;;;;0.93;0.90;;;14.80;99.90;14.80;99289.00;;;;4986813;27;88027;-65
2023/08/07 01:27:17;;;;;;;0.98;0.80;;;14.80;99.90;14.80;99285.00;;;;4990755;27;93739;-65
2023/08/07 01:29:57;;;;;;;0.88;0.70;;;14.80;99.90;14.80;99294.00;;;;4990962;27;111838;-64
2023/08/07 01:32:36;;;;;;;1.42;1.10;;;14.80;99.90;14.80;99293.00;;;;4988167;27;88024;-64
2023/08/07 01:35:05;;;;;;;1.05;0.93;;;14.80;99.90;14.80;99296.00;;;;4991227;27;87812;-65
2023/08/07 01:37:34;;;;;;;1.75;0.90;;;14.80;99.90;14.80;99298.00;;;;4990139;27;91035;-66
2023/08/07 01:40:03;;;;;;;0.70;0.57;;;14.80;99.90;14.80;99306.00;;;;4988218;27;105898;-65
2023/08/07 01:42:29;;;;;;;1.13;0.87;;;14.80;99.90;14.80;99295.00;;;;4991578;27;87951;-64
2023/08/07 01:44:55;;;;;;;0.90;0.88;;;14.80;99.90;14.80;99312.00;;;;4988588;27;99644;-65
2023/08/07 01:47:20;;;;;;;0.90;0.90;;;14.80;99.90;14.80;99314.00;;;;4985694;27;108248;-65
2023/08/07 01:49:46;;;;;;;1.25;0.77;;;14.80;99.90;14.80;99316.00;;;;4991822;27;118257;-65
2023/08/07 01:52:12;;;;;;;1.98;1.13;;;14.80;99.90;14.90;99322.00;;;;4993639;27;116927;-64
2023/08/07 01:54:38;;;;;;;1.10;0.82;;;14.80;99.90;14.80;99311.00;;;;4987437;27;88008;-64
2023/08/07 01:57:04;;;;;;;1.35;0.90;;;14.80;99.90;14.90;99317.00;;;;4988807;27;107851;-64
2023/08/07 01:59:30;;;;;;;1.08;0.93;;;14.80;99.90;14.90;99320.00;;;;4985206;27;108521;-64
2023/08/07 02:01:58;;;;;;;1.20;1.10;;;14.80;99.90;14.90;99322.00;;;;4983051;27;117389;-65
2023/08/07 02:04:24;;;;;;;2.17;1.30;;;14.80;99.90;14.90;99322.00;;;;4984414;28;110859;-64
2023/08/07 02:06:49;;;;;;;2.08;1.08;;;14.80;99.90;14.90;99328.00;;;;4985681;27;87712;-64
2023/08/07 02:09:15;;;;;;;1.15;0.95;;;14.80;99.90;14.90;99318.00;;;;4986994;27;113770;-63
2023/08/07 02:11:42;;;;;;;1.73;1.60;;;14.80;99.90;14.90;99325.00;;;;4987748;27;117149;-64
2023/08/07 02:14:08;;;;;;;2.28;1.30;;;14.90;99.90;14.90;99322.00;;;;4985123;27;88080;-64
2023/08/07 02:16:34;;;;;;;1.63;1.38;;;14.90;99.90;15.00;99328.00;;;;4990289;27;87883;-63
2023/08/07 02:18:59;;;;;;;1.65;1.52;;;14.90;99.90;15.00;99329.00;;;;4986203;27;96522;-64
2023/08/07 02:21:25;;;;;;;2.25;1.50;;;15.00;99.90;15.00;99332.00;;;;4985870;28;117165;-64
2023/08/07 02:23:51;;;;;;;1.58;1.48;;;14.90;99.90;15.00;99326.00;;;;4986911;27;109191;-63
2023/08/07 02:26:16;;;;;;;1.90;1.80;;;15.00;99.90;15.00;99324.00;;;;4986903;27;91711;-64
2023/08/07 02:28:42;;;;;;;2.45;1.40;;;15.00;99.90;15.00;99332.00;;;;4984764;27;117068;-63
2023/08/07 02:31:07;;;;;;;2.43;1.93;;;15.00;99.90;15.00;99331.00;;;;4984650;27;116676;-63
2023/08/07 02:33:33;;;;;;;1.85;1.67;;;15.00;99.90;15.00;99328.00;;;;4986685;27;110740;-63
2023/08/07 02:35:59;;;;;;;3.42;2.30;;;15.00;99.90;15.00;99330.00;;;;4986466;27;109833;-64
2023/08/07 02:38:25;;;;;;;2.33;1.60;;;15.00;99.90;15.00;99335.00;;;;4989124;27;117224;-65
2023/08/07 02:40:51;;;;;;;2.10;1.58;;;15.00;99.90;15.10;99330.00;;;;4986262;28;87541;-65
2023/08/07 02:43:17;;;;;;;2.40;1.95;;;15.00;99.90;15.00;99329.00;;;;4985152;27;110698;-66
2023/08/07 02:45:42;;;;;;;1.67;1.58;;;15.00;99.90;15.10;99337.00;;;;4986378;27;87966;-65
2023/08/07 02:48:08;;;;;;;1.73;1.60;;;15.00;99.90;15.10;99342.00;;;;4984152;27;115995;-65
2023/08/07 02:50:33;;;;;;;2.38;2.17;;;15.00;99.90;15.10;99339.00;;;;4982806;27;116384;-65
2023/08/07 02:53:00;;;;;;;2.10;1.80;;;15.00;99.90;15.10;99339.00;;;;4983606;27;110838;-65
2023/08/07 02:55:26;;;;;;;2.60;2.38;;;15.00;99.90;15.10;99345.00;;;;4985348;27;109322;-65
2023/08/07 02:57:51;;;;;;;2.53;2.08;;;15.00;99.90;15.10;99342.00;;;;4944579;27;1107452;-65
2023/08/07 03:00:17;;;;;;;7.10;2.05;;;15.00;99.90;15.10;99347.00;;;;4985075;28;88807;-66
2023/08/07 03:02:43;;;;;;;2.30;2.10;;;15.00;99.90;15.10;99358.00;;;;4985726;27;110812;-65
2023/08/07 03:05:09;;;;;;;2.47;2.28;;;15.00;99.90;15.10;99355.00;;;;4987837;27;107354;-64
2023/08/07 03:07:34;;;;;;;2.25;1.77;;;15.00;99.90;15.10;99355.00;;;;4985504;28;93013;-64
2023/08/07 03:10:00;;;;;;;1.70;1.52;;;15.00;99.90;15.10;99353.00;;;;4990613;27;118104;-65
2023/08/07 03:12:26;;;;;;;3.45;3.15;;;15.00;99.90;15.10;99350.00;;;;4985615;27;102132;-65
2023/08/07 03:14:52;;;;;;;2.88;2.40;;;15.00;99.90;15.10;99349.00;;;;4991597;27;87785;-64
2023/08/07 03:17:17;;;;;;;3.05;2.25;;;15.00;99.90;15.10;99349.00;;;;4988926;27;115450;-65
2023/08/07 03:19:43;;;;;;;6.82;2.25;;;15.00;99.90;15.10;99353.00;;;;4987337;27;116026;-64
2023/08/07 03:22:10;;;;;;;4.20;2.95;;;15.00;99.90;15.10;99357.00;;;;4986296;28;90496;-65
2023/08/07 03:24:35;;;;;;;2.63;2.42;;;15.00;99.90;15.00;99358.00;;;;4985626;27;89174;-65
2023/08/07 03:27:01;;;;;;;2.85;2.30;;;15.00;99.90;15.00;99364.00;;;;4987038;27;116195;-65
2023/08/07 03:29:27;;;;;;;2.95;2.40;;;15.00;99.90;15.00;99363.00;;;;4983631;27;118058;-64
2023/08/07 03:31:52;;;;;;;3.50;2.42;;;15.00;99.90;15.00;99357.00;;;;4989059;27;111930;-65
2023/08/07 03:34:18;;;;;;;3.22;2.47;;;14.90;99.90;14.90;99368.00;;;;4984884;27;108512;-65
2023/08/07 03:36:45;;;;;;;2.70;1.77;;;14.90;99.90;14.90;99375.00;;;;4987508;27;117747;-65
2023/08/07 03:39:12;;;;;;;2.17;1.92;;;14.90;99.90;14.80;99377.00;;;;4984628;27;116876;-64
2023/08/07 03:41:38;;;;;;;2.33;1.70;;;14.80;99.90;14.80;99384.00;;;;4985870;28;87202;-65
2023/08/07 03:44:04;;;;;;;3.42;2.25;;;14.80;99.90;14.80;99386.00;;;;4987042;28;88422;-63
2023/08/07 03:46:29;;;;;;;2.78;2.00;;;14.80;99.90;14.70;99392.00;;;;4986420;27;87814;-64
2023/08/07 03:48:55;;;;;;;1.92;1.75;;;14.70;99.90;14.70;99391.00;;;;4986946;27;94324;-65
2023/08/07 03:51:21;;;;;;;1.67;1.27;;;14.70;99.90;14.70;99397.00;;;;4986265;27;110284;-64
2023/08/07 03:53:46;;;;;;;2.38;2.25;;;14.70;99.90;14.70;99394.00;;;;4986915;28;88035;-64
2023/08/07 03:56:12;;;;;;;2.92;1.60;;;14.60;99.90;14.60;99396.00;;;;4985990;27;116245;-65
2023/08/07 03:58:38;;;;;;;1.77;1.67;;;14.60;99.90;14.60;99395.00;;;;4988203;27;105745;-64
2023/08/07 04:01:03;;;;;;;3.47;2.17;;;14.80;99.90;14.60;99412.00;;;;4989703;27;87888;-64
2023/08/07 04:03:29;;;;;;;2.75;1.75;;;14.50;99.90;14.50;99410.00;;;;4990511;27;107819;-64
2023/08/07 04:05:55;;;;;;;1.92;1.50;;;14.50;99.90;14.50;99410.00;;;;4992394;27;90607;-65
2023/08/07 04:08:22;;;;;;;1.83;1.70;;;14.60;99.90;14.50;99409.00;;;;4989083;27;116082;-65
2023/08/07 04:11:08;;;;;;;1.98;1.85;;;14.50;99.90;14.50;99407.00;;;;4987936;27;88517;-64
2023/08/07 04:13:34;;;;;;;2.40;2.20;;;14.50;99.90;14.50;99414.00;;;;4986475;27;88741;-64
2023/08/07 04:16:01;;;;;;;2.20;1.63;;;14.50;99.90;14.60;99414.00;;;;4989750;27;89046;-64
2023/08/07 04:18:27;;;;;;;2.90;1.90;;;14.50;99.90;14.60;99411.00;;;;4989050;27;88671;-64
2023/08/07 04:20:54;;;;;;;2.90;2.33;;;14.50;99.90;14.60;99413.00;;;;4987901;27;110372;-64
2023/08/07 04:23:20;;;;;;;2.75;1.65;;;14.50;99.90;14.60;99414.00;;;;4988995;27;101000;-64
2023/08/07 04:25:50;;;;;;;7.05;2.17;;;14.60;99.90;14.70;99420.00;;;;4988931;27;108229;-63
2023/08/07 04:28:17;;;;;;;2.53;2.33;;;14.60;99.90;14.70;99408.00;;;;4989405;27;88779;-64
2023/08/07 04:30:44;;;;;;;2.95;2.13;;;14.60;99.90;14.70;99416.00;;;;4987536;27;111623;-64
2023/08/07 04:33:10;;;;;;;7.20;2.05;;;14.60;99.90;14.70;99411.00;;;;4988394;27;88027;-64
2023/08/07 04:35:35;;;;;;;2.10;1.95;;;14.60;99.90;14.70;99417.00;;;;4987944;27;88179;-65
2023/08/07 04:38:02;;;;;;;2.60;1.95;;;14.70;99.90;14.70;99416.00;;;;4985035;27;102111;-64
2023/08/07 04:40:28;;;;;;;2.55;1.90;;;14.60;99.90;14.70;99408.00;;;;4988537;27;87955;-64
2023/08/07 04:42:54;;;;;;;2.30;1.75;;;14.60;99.90;14.70;99404.00;;;;4989938;27;88016;-64
2023/08/07 04:45:20;;;;;;;2.22;1.95;;;14.70;99.90;14.70;99410.00;;;;4984136;27;88935;-63
2023/08/07 04:47:45;;;;;;;3.67;2.40;;;14.70;99.90;14.80;99414.00;;;;4982894;27;116822;-65
2023/08/07 04:50:11;;;;;;;2.80;2.42;;;14.70;99.90;14.80;99412.00;;;;4987948;27;110508;-65
2023/08/07 04:52:37;;;;;;;2.50;2.30;;;14.70;99.90;14.80;99421.00;;;;4982711;27;108171;-64
2023/08/07 04:55:04;;;;;;;2.70;2.47;;;14.80;99.90;14.90;99429.00;;;;4986343;27;117534;-65
2023/08/07 04:57:29;;;;;;;4.32;2.58;;;14.80;99.90;14.90;99427.00;;;;4983428;27;90055;-65
2023/08/07 04:59:55;;;;;;;3.70;2.92;;;14.90;99.90;14.90;99426.00;;;;4985421;27;109953;-64
2023/08/07 05:02:21;;;;;;;5.18;2.70;;;14.90;99.90;15.00;99421.00;;;;4988900;27;108139;-64
2023/08/07 05:04:46;;;;;;;3.85;2.33;;;14.90;99.90;15.00;99446.00;;;;4985754;27;117722;-65
2023/08/07 05:07:12;;;;;;;2.58;2.38;;;14.90;99.90;15.00;99436.00;;;;4982347;27;118303;-64
2023/08/07 05:09:38;;;;;;;2.55;2.35;;;15.00;99.90;15.00;99455.00;;;;4986434;27;87981;-64
2023/08/07 05:12:06;;;;;;;3.28;2.15;;;15.00;99.90;15.10;99454.00;;;;4985087;27;108977;-64
2023/08/07 05:14:32;;;;;;;2.10;1.98;;;15.00;99.90;15.10;99458.00;;;;4985785;27;88353;-66
2023/08/07 05:16:58;;;;;;;4.07;3.08;;;15.00;99.90;15.10;99458.00;;;;4985889;27;88387;-64
2023/08/07 05:19:23;;;;;;;5.07;2.90;;;15.10;99.90;15.10;99455.00;;;;4981637;27;110294;-66
2023/08/07 05:21:50;;;;;;;4.75;3.58;;;15.10;99.90;15.20;99461.00;;;;4983023;27;108715;-65
2023/08/07 05:24:19;;;;;;;6.88;4.30;;;15.10;99.90;15.20;99460.00;;;;4982601;27;88486;-66
2023/08/07 05:26:45;;;;;;;6.82;3.42;;;15.20;99.90;15.30;99447.00;;;;4979194;27;88579;-64
2023/08/07 05:29:11;;;;;;;5.85;3.90;;;15.40;99.90;15.30;99441.00;;;;4982322;27;111572;-63
2023/08/07 05:31:37;;;;;;;5.40;3.80;;;15.20;99.90;15.30;99451.00;;;;4978433;27;108256;-65
2023/08/07 05:34:03;;;;;;;4.15;3.47;;;15.30;99.90;15.40;99446.00;;;;4985227;27;88011;-64
2023/08/07 05:36:31;;;;;;;5.50;3.70;;;15.30;99.90;15.40;99456.00;;;;4980583;27;88717;-63
2023/08/07 05:38:57;;;;;;;4.90;3.30;;;15.30;99.90;15.40;99461.00;;;;4982508;27;88111;-64
2023/08/07 05:41:22;;;;;;;2.97;2.70;;;15.40;99.90;15.40;99467.00;;;;4979838;27;102173;-64
2023/08/07 05:43:48;;;;;;;6.50;3.75;;;15.40;99.90;15.50;99475.00;;;;4982698;27;116610;-63
2023/08/07 05:46:14;;;;;;;4.25;3.85;;;15.40;99.90;15.50;99476.00;;;;4980191;27;88171;-64
2023/08/07 05:48:40;;;;;;;3.97;3.55;;;15.50;99.90;15.60;99476.00;;;;4982987;27;88009;-63
2023/08/07 05:51:06;;;;;;;3.88;3.05;;;15.50;99.90;15.60;99476.00;;;;4982710;27;109854;-63
2023/08/07 05:53:33;;;;;;;7.80;3.33;;;15.60;99.90;15.70;99478.00;;;;4985169;27;89180;-63
2023/08/07 05:55:59;;;;;;;4.35;3.53;;;15.60;99.90;15.70;99477.00;;;;4989959;27;89848;-65
2023/08/07 05:58:25;;;;;;;4.50;3.58;;;15.70;99.90;15.80;99476.00;;;;4982603;27;110697;-62
2023/08/07 06:00:50;;;;;;;3.65;3.35;;;15.70;99.90;15.80;99466.00;;;;4984055;27;108748;-64
2023/08/07 06:03:16;;;;;;;5.30;3.80;;;15.80;99.90;15.90;99470.00;;;;4985993;27;118099;-65
2023/08/07 06:05:41;;;;;;;4.43;3.47;;;15.80;99.90;15.90;99484.00;;;;4983109;27;116143;-65
2023/08/07 06:08:07;;;;;;;3.28;2.55;;;15.90;99.90;16.00;99500.00;;;;4980759;27;108682;-65
2023/08/07 06:10:33;;;;;;;4.03;3.17;;;15.90;99.90;16.00;99499.00;;;;4984529;27;88073;-65
2023/08/07 06:12:58;;;;;;;3.30;2.85;;;16.00;99.90;16.10;99504.00;;;;4985096;27;116642;-65
2023/08/07 06:15:24;;;;;;;8.68;3.28;;;16.00;99.90;16.10;99502.00;;;;4984548;27;116498;-63
2023/08/07 06:17:51;;;;;;;5.28;3.88;;;16.00;99.90;16.20;99502.00;;;;4985506;27;94284;-64
2023/08/07 06:20:17;;;;;;;3.90;3.08;;;16.10;99.90;16.20;99509.00;;;;4989464;27;87959;-64
2023/08/07 06:22:43;;;;;;;4.40;3.28;;;16.10;99.90;16.20;99508.00;;;;4986743;27;95205;-64
2023/08/07 06:25:09;;;;;;;4.50;3.03;;;16.20;99.90;16.20;99507.00;;;;4982296;27;118646;-64
2023/08/07 06:27:34;;;;;;;5.55;4.07;;;16.20;99.90;16.30;99516.00;;;;4985205;27;110119;-65
2023/08/07 06:30:01;;;;;;;3.33;3.03;;;16.20;99.90;16.30;99513.00;;;;4984112;27;107171;-64
2023/08/07 06:32:27;;;;;;;4.75;3.28;;;16.20;99.90;16.30;99511.00;;;;4986664;27;87674;-62
2023/08/07 06:34:53;;;;;;;4.03;2.70;;;16.20;99.90;16.30;99515.00;;;;4980930;27;117521;-63
2023/08/07 06:37:19;;;;;;;2.90;2.42;;;16.30;99.90;16.40;99516.00;;;;4985433;27;109566;-63
2023/08/07 06:39:46;;;;;;;3.17;2.75;;;16.30;99.90;16.50;99519.00;;;;4983409;27;89119;-65
2023/08/07 06:42:12;;;;;;;2.58;2.38;;;16.30;99.90;16.50;99526.00;;;;4985656;27;88519;-65
2023/08/07 06:44:38;;;;;;;2.67;2.47;;;16.40;99.90;16.60;99531.00;;;;4986026;27;88482;-64
2023/08/07 06:47:03;;;;;;;3.45;2.50;;;16.50;99.90;16.60;99532.00;;;;4983670;27;109299;-64
2023/08/07 06:49:31;;;;;;;2.17;1.67;;;16.50;99.90;16.60;99529.00;;;;4987005;27;94064;-64
2023/08/07 06:51:58;;;;;;;2.17;1.70;;;16.60;99.90;16.60;99524.00;;;;4984307;27;89153;-65
2023/08/07 06:54:23;;;;;;;2.25;2.03;;;16.60;99.90;16.70;99537.00;;;;4983026;27;88323;-64
2023/08/07 06:56:49;;;;;;;4.57;1.83;;;16.60;99.90;16.70;99529.00;;;;4984489;27;101791;-64
2023/08/07 06:59:15;;;;;;;2.15;1.95;;;16.60;99.90;16.70;99529.00;;;;4981701;27;108215;-65
2023/08/07 07:01:40;;;;;;;3.58;1.73;;;16.70;99.90;16.70;99536.00;;;;4981654;27;118803;-65
2023/08/07 07:04:06;;;;;;;1.90;1.50;;;16.70;99.90;16.80;99537.00;;;;4982246;27;116915;-64
2023/08/07 07:06:33;;;;;;;2.13;1.92;;;16.70;99.90;16.80;99537.00;;;;4984942;27;87841;-64
2023/08/07 07:08:58;;;;;;;2.38;1.58;;;16.80;99.90;16.80;99546.00;;;;4983402;27;87888;-64
2023/08/07 07:11:24;;;;;;;3.15;2.10;;;16.70;99.90;16.90;99549.00;;;;4982918;27;112579;-64
2023/08/07 07:13:50;;;;;;;3.40;2.05;;;16.80;99.90;17.00;99549.00;;;;4984911;27;88187;-65
2023/08/07 07:16:18;;;;;;;4.22;2.22;;;16.90;99.90;17.00;99549.00;;;;4983237;27;87992;-66
2023/08/07 07:18:44;;;;;;;2.42;2.22;;;16.90;99.90;17.10;99550.00;;;;4983928;27;87832;-66
2023/08/07 07:21:10;;;;;;;2.22;1.77;;;17.00;99.90;17.20;99561.00;;;;4981114;27;116980;-65
2023/08/07 07:23:35;;;;;;;2.45;1.77;;;17.00;99.90;17.20;99563.00;;;;4979272;27;115536;-66
2023/08/07 07:26:01;;;;;;;2.20;2.00;;;17.10;99.90;17.20;99561.00;;;;4984023;27;110222;-65
2023/08/07 07:28:27;;;;;;;2.78;2.50;;;17.20;99.90;17.30;99560.00;;;;4986795;27;90440;-64
2023/08/07 07:30:53;;;;;;;4.45;2.30;;;17.20;99.90;17.40;99568.00;;;;4981549;27;117967;-65
2023/08/07 07:33:19;;;;;;;2.53;1.80;;;17.30;99.90;17.60;99556.00;;;;4982384;27;87832;-64
2023/08/07 07:35:44;;;;;;;2.75;2.35;;;17.40;99.90;17.70;99569.00;;;;4983653;27;87593;-64
2023/08/07 07:38:10;;;;;;;3.92;2.47;;;17.60;99.90;17.80;99566.00;;;;4982734;27;87833;-65
2023/08/07 07:40:36;;;;;;;4.28;2.25;;;17.70;99.90;18.00;99570.00;;;;4983825;27;88688;-65
2023/08/07 07:43:03;;;;;;;2.35;2.05;;;17.90;99.90;18.20;99563.00;;;;4983415;27;89471;-66
2023/08/07 07:45:29;;;;;;;2.20;1.55;;;18.00;99.90;18.30;99570.00;;;;4983430;27;87054;-66
2023/08/07 07:47:55;;;;;;;6.65;2.70;;;18.20;99.90;18.40;99579.00;;;;4980868;27;88149;-65
2023/08/07 07:50:21;;;;;;;2.15;1.63;;;18.30;99.90;18.50;99582.00;;;;4984972;27;87993;-64
2023/08/07 07:52:46;;;;;;;1.83;1.73;;;18.40;99.90;18.50;99592.00;;;;4982570;27;107450;-64
2023/08/07 07:55:13;;;;;;;2.03;1.40;;;18.40;99.90;18.60;99589.00;;;;4984815;27;110568;-65
2023/08/07 07:57:40;;;;;;;2.03;1.83;;;18.50;99.90;18.60;99595.00;;;;4981890;27;88569;-66
2023/08/07 08:00:10;;;;;;;4.03;2.28;;;18.50;99.90;18.60;99591.00;;;;4982792;27;88925;-66
2023/08/07 08:02:43;;;;;;;1.65;1.55;;;18.60;99.90;18.70;99598.00;;;;4988940;27;88257;-66
2023/08/07 08:05:12;;;;;;;2.78;1.33;;;18.60;99.90;18.70;99601.00;;;;4985978;27;88033;-66
2023/08/07 08:07:42;;;;;;;1.77;1.10;;;18.70;99.90;18.70;99592.00;;;;4985628;27;87935;-67
2023/08/07 08:10:08;;;;;;;1.80;1.63;;;18.60;99.90;18.60;99603.00;;;;4989055;27;88244;-64
2023/08/07 08:12:35;;;;;;;1.75;1.10;;;18.60;99.90;18.60;99599.00;;;;4985789;27;88110;-65
2023/08/07 08:15:01;;;;;;;1.20;1.00;;;18.50;99.90;18.70;99603.00;;;;4981374;28;88252;-66
2023/08/07 08:17:27;;;;;;;3.08;1.15;;;18.60;99.90;18.90;99610.00;;;;4985489;27;89061;-65
2023/08/07 08:19:52;;;;;;;1.65;1.25;;;18.70;99.90;19.10;99602.00;;;;4987086;27;116440;-65
2023/08/07 08:22:21;;;;;;;1.30;1.20;;;18.90;99.90;19.30;99606.00;;;;4980195;27;117171;-65
2023/08/07 08:24:47;;;;;;;0.88;0.82;;;19.10;99.90;19.30;99608.00;;;;4983319;27;110449;-66
2023/08/07 08:27:13;;;;;;;2.20;0.77;;;19.20;99.90;19.40;99613.00;;;;4980193;27;87975;-66
2023/08/07 08:29:39;;;;;;;0.90;0.90;;;19.30;99.90;19.60;99613.00;;;;4979356;27;117327;-66
2023/08/07 08:32:05;;;;;;;1.27;1.15;;;19.40;99.90;19.70;99623.00;;;;4982467;27;110017;-66
2023/08/07 08:34:31;;;;;;;4.25;1.05;;;19.50;99.90;19.90;99622.00;;;;4984029;27;102803;-66
2023/08/07 08:36:57;;;;;;;0.77;0.77;;;19.70;99.90;19.90;99621.00;;;;4981598;27;108544;-66
2023/08/07 08:39:22;;;;;;;5.80;1.25;;;19.80;99.90;20.00;99627.00;;;;4985224;27;89337;-66
2023/08/07 08:41:49;;;;;;;1.95;0.93;;;19.80;99.90;20.10;99629.00;;;;4980805;27;88936;-67
2023/08/07 08:44:17;;;;;;;1.40;1.27;;;19.90;99.90;20.20;99628.00;;;;4980256;27;109848;-66
2023/08/07 08:46:43;;;;;;;2.22;1.00;;;20.00;99.90;20.30;99627.00;;;;4982028;27;87949;-66
2023/08/07 08:49:10;;;;;;;0.85;0.77;;;20.10;99.90;20.40;99625.00;;;;4982931;27;88081;-67
2023/08/07 08:51:37;;;;;;;2.00;1.25;;;20.20;99.90;20.50;99627.00;;;;4986439;27;87792;-67
2023/08/07 08:54:03;;;;;;;1.77;1.65;;;20.30;99.90;20.40;99629.00;;;;4983048;27;109948;-67
2023/08/07 08:56:30;;;;;;;1.95;1.45;;;20.30;99.90;20.30;99635.00;;;;4985890;27;87931;-68
2023/08/07 08:58:56;;;;;;;2.20;1.35;;;20.10;99.90;20.10;99632.00;;;;4982942;27;107584;-68
2023/08/07 09:01:23;;;;;;;2.97;1.10;;;20.10;99.90;19.90;99635.00;;;;4981010;27;115993;-66
2023/08/07 09:03:50;;;;;;;9.45;4.85;;;19.90;99.90;19.90;99639.00;;;;4981352;27;88064;-66
2023/08/07 09:06:16;;;;;;;2.00;1.30;;;19.80;99.90;19.90;99645.00;;;;4985331;27;88955;-67
2023/08/07 09:08:43;;;;;;;0.63;0.63;;;19.70;99.90;19.90;99640.00;;;;4981237;27;88109;-67
2023/08/07 09:11:10;;;;;;;3.63;1.27;;;19.80;99.90;19.80;99651.00;;;;4985541;27;89861;-66
2023/08/07 09:13:38;;;;;;;0.65;0.65;;;19.70;99.90;19.80;99652.00;;;;4987669;27;88186;-66
2023/08/07 09:16:08;;;;;;;1.08;0.82;;;19.70;99.90;19.70;99653.00;;;;4984019;27;87825;-66
2023/08/07 09:18:37;;;;;;;1.00;0.68;;;19.60;99.90;19.80;99647.00;;;;4984600;27;88985;-66
2023/08/07 09:21:03;;;;;;;1.55;0.68;;;19.70;99.90;19.80;99646.00;;;;4981022;27;117084;-67
2023/08/07 09:23:29;;;;;;;4.68;1.25;;;19.70;99.90;19.80;99649.00;;;;4982251;27;110017;-67
2023/08/07 09:26:02;;;;;;;1.20;1.10;;;19.70;99.90;19.70;99654.00;;;;4986999;27;87822;-67
2023/08/07 09:28:29;;;;;;;2.75;2.25;;;19.60;99.90;19.50;99657.00;;;;4989276;27;89148;-66
2023/08/07 09:30:55;;;;;;;0.63;0.63;;;19.40;99.90;19.30;99661.00;;;;4986289;27;88870;-67
2023/08/07 09:33:29;;;;;;;1.60;0.90;;;19.30;99.90;19.20;99661.00;;;;4987099;27;87945;-67
2023/08/07 09:36:00;;;;;;;1.60;1.38;;;19.20;99.90;19.20;99667.00;;;;4990273;27;94081;-67
2023/08/07 09:38:32;;;;;;;1.38;1.08;;;19.10;99.90;19.20;99672.00;;;;4990248;27;87983;-67
2023/08/07 09:40:59;;;;;;;0.63;0.63;;;19.10;99.90;19.10;99676.00;;;;4990709;27;88425;-68
2023/08/07 09:43:25;;;;;;;0.82;0.75;;;19.10;99.90;18.80;99683.00;;;;4986267;27;87986;-68
2023/08/07 09:45:51;;;;;;;2.55;1.02;;;18.80;99.90;18.10;99687.00;;;;4987694;27;108615;-67
2023/08/07 09:48:27;;;;;;;1.02;0.93;;;18.00;99.90;17.60;99677.00;;;;4988252;27;87844;-65
2023/08/07 09:50:53;;;;;;;1.13;0.77;;;17.80;99.90;17.30;99678.00;;;;4987677;27;87949;-67
2023/08/07 09:53:26;;;;;;;1.75;0.60;;;17.40;99.90;17.20;99683.00;;;;4984105;27;87948;-67
2023/08/07 09:55:54;;;;;;;1.15;1.05;;;17.20;99.90;17.20;99663.00;;;;5001109;27;88650;-67
2023/08/07 09:58:21;;;;;;;3.08;1.15;;;17.20;99.90;17.30;99669.00;;;;5000836;27;88264;-68
2023/08/07 10:00:47;;;;;;;1.05;0.85;;;17.20;99.90;17.40;99668.00;;;;4991561;27;87934;-66
2023/08/07 10:03:14;;;;;;;1.23;0.73;;;17.30;99.90;17.60;99667.00;;;;4988347;27;87998;-68
2023/08/07 10:05:42;;;;;;;1.40;0.80;;;17.40;99.90;17.80;99661.00;;;;4989761;27;88260;-67
2023/08/07 10:08:08;;;;;;;1.35;0.80;;;17.60;99.90;18.00;99679.00;;;;4984104;28;117934;-69
2023/08/07 10:10:34;;;;;;;1.95;1.20;;;17.80;99.90;18.30;99672.00;;;;4984374;27;108874;-67
2023/08/07 10:13:03;;;;;;;1.20;0.65;;;18.00;99.90;18.60;99671.00;;;;4985554;27;111364;-68
2023/08/07 10:15:31;;;;;;;1.35;0.93;;;18.30;99.90;18.90;99674.00;;;;4982199;28;91179;-69
2023/08/07 10:17:57;;;;;;;2.03;1.75;;;18.60;99.90;19.10;99677.00;;;;4984740;28;89146;-69
2023/08/07 10:20:28;;;;;;;0.75;0.75;;;18.80;99.90;19.30;99684.00;;;;4979239;28;111237;-70
2023/08/07 10:23:09;;;;;;;0.77;0.77;;;19.00;99.90;19.40;99683.00;;;;4984974;28;88158;-69
2023/08/07 10:25:39;;;;;;;0.95;0.85;;;19.20;99.90;19.40;99676.00;;;;4983176;27;88044;-72
2023/08/07 10:28:08;;;;;;;0.63;0.55;;;19.30;99.90;19.00;99684.00;;;;4984754;27;88089;-67
2023/08/07 10:30:35;;;;;;;0.50;0.50;;;19.00;99.90;18.30;99685.00;;;;4984921;27;108424;-67
2023/08/07 10:33:02;;;;;;;2.70;1.13;;;18.50;99.90;17.60;99708.00;;;;4985293;27;104917;-64
2023/08/07 10:35:33;;;;;;;4.82;1.10;;;17.90;99.90;17.10;99711.00;;;;4985846;27;107150;-66
2023/08/07 10:38:10;;;;;;;1.30;1.20;;;17.40;99.90;16.70;99696.00;;;;4984281;27;87528;-64
2023/08/07 10:41:12;;;;;;;3.05;0.93;;;16.90;99.90;16.30;99703.00;;;;4985332;27;88193;-64
2023/08/07 10:43:40;;;;;;;1.65;1.13;;;16.50;99.90;16.10;99685.00;;;;4983676;27;88139;-67
2023/08/07 10:46:15;;;;;;;0.93;0.82;;;16.20;99.90;15.90;99686.00;;;;4983768;28;89023;-66
2023/08/07 10:48:43;;;;;;;0.47;0.45;;;16.00;99.90;15.90;99690.00;;;;4983531;27;106021;-66